sensor_id;sensor_type;location;lat;lon;timestamp;pressure;altitude;pressure_sealevel;temperature
61595;BMP280;47397;48.194;11.632;2023-04-24T00:00:16;95069.53;;;10.88
61595;BMP280;47397;48.194;11.632;2023-04-24T00:01:17;95074.97;;;10.79
61595;BMP280;47397;48.194;11.632;2023-04-24T00:02:17;95068.88;;;10.83
61595;BMP280;47397;48.194;11.632;2023-04-24T00:03:18;95069.53;;;10.88
61595;BMP280;47397;48.194;11.632;2023-04-24T00:04:18;95060.19;;;10.88
61595;BMP280;47397;48.194;11.632;2023-04-24T00:05:18;95062.13;;;10.82
61595;BMP280;47397;48.194;11.632;2023-04-24T00:06:19;95061.59;;;10.95
61595;BMP280;47397;48.194;11.632;2023-04-24T00:07:19;95061.81;;;10.68
61595;BMP280;47397;48.194;11.632;2023-04-24T00:08:20;95062.13;;;10.82
61595;BMP280;47397;48.194;11.632;2023-04-24T00:09:20;95060.25;;;10.87
61595;BMP280;47397;48.194;11.632;2023-04-24T00:10:21;95061.06;;;10.87
61595;BMP280;47397;48.194;11.632;2023-04-24T00:11:21;95067.22;;;10.82
61595;BMP280;47397;48.194;11.632;2023-04-24T00:12:22;95063.03;;;10.81
61595;BMP280;47397;48.194;11.632;2023-04-24T00:13:22;95060.31;;;10.85
61595;BMP280;47397;48.194;11.632;2023-04-24T00:14:24;95063.13;;;11.00
61595;BMP280;47397;48.194;11.632;2023-04-24T00:15:24;95062.78;;;10.87
61595;BMP280;47397;48.194;11.632;2023-04-24T00:16:25;95055.03;;;10.90
61595;BMP280;47397;48.194;11.632;2023-04-24T00:17:25;95045.84;;;11.08
61595;BMP280;47397;48.194;11.632;2023-04-24T00:18:26;95050.44;;;11.00
61595;BMP280;47397;48.194;11.632;2023-04-24T00:19:26;95053.09;;;10.96
61595;BMP280;47397;48.194;11.632;2023-04-24T00:20:27;95052.75;;;10.84
61595;BMP280;47397;48.194;11.632;2023-04-24T00:21:27;95049.25;;;10.86
61595;BMP280;47397;48.194;11.632;2023-04-24T00:22:28;95052.25;;;10.96
61595;BMP280;47397;48.194;11.632;2023-04-24T00:23:28;95056.16;;;10.83
61595;BMP280;47397;48.194;11.632;2023-04-24T00:24:29;95051.41;;;10.74
61595;BMP280;47397;48.194;11.632;2023-04-24T00:25:29;95045.56;;;10.72
61595;BMP280;47397;48.194;11.632;2023-04-24T00:26:30;95054.47;;;10.60
61595;BMP280;47397;48.194;11.632;2023-04-24T00:27:30;95050.06;;;10.65
61595;BMP280;47397;48.194;11.632;2023-04-24T00:28:30;95047.44;;;10.67
61595;BMP280;47397;48.194;11.632;2023-04-24T00:29:32;95050.31;;;10.81
61595;BMP280;47397;48.194;11.632;2023-04-24T00:30:33;95049.72;;;10.96
61595;BMP280;47397;48.194;11.632;2023-04-24T00:31:33;95052.41;;;10.70
61595;BMP280;47397;48.194;11.632;2023-04-24T00:32:34;95052.38;;;10.93
61595;BMP280;47397;48.194;11.632;2023-04-24T00:33:34;95046.72;;;10.86
61595;BMP280;47397;48.194;11.632;2023-04-24T00:34:34;95050.53;;;10.96
61595;BMP280;47397;48.194;11.632;2023-04-24T00:35:35;95056.41;;;10.99
61595;BMP280;47397;48.194;11.632;2023-04-24T00:36:35;95060.91;;;10.92
61595;BMP280;47397;48.194;11.632;2023-04-24T00:37:36;95052.13;;;10.99
61595;BMP280;47397;48.194;11.632;2023-04-24T00:38:36;95048.38;;;10.87
61595;BMP280;47397;48.194;11.632;2023-04-24T00:39:36;95049.34;;;11.05
61595;BMP280;47397;48.194;11.632;2023-04-24T00:40:37;95058.72;;;10.83
61595;BMP280;47397;48.194;11.632;2023-04-24T00:41:37;95055.66;;;10.73
61595;BMP280;47397;48.194;11.632;2023-04-24T00:42:38;95058.91;;;10.77
61595;BMP280;47397;48.194;11.632;2023-04-24T00:43:39;95054.50;;;10.82
61595;BMP280;47397;48.194;11.632;2023-04-24T00:44:41;95052.19;;;10.98
61595;BMP280;47397;48.194;11.632;2023-04-24T00:45:41;95052.13;;;10.99
61595;BMP280;47397;48.194;11.632;2023-04-24T00:46:42;95052.81;;;10.82
61595;BMP280;47397;48.194;11.632;2023-04-24T00:47:45;95055.00;;;10.68
61595;BMP280;47397;48.194;11.632;2023-04-24T00:48:46;95057.00;;;10.83
61595;BMP280;47397;48.194;11.632;2023-04-24T00:49:46;95046.13;;;10.80
61595;BMP280;47397;48.194;11.632;2023-04-24T00:50:47;95057.44;;;10.71
61595;BMP280;47397;48.194;11.632;2023-04-24T00:51:48;95054.19;;;10.68
61595;BMP280;47397;48.194;11.632;2023-04-24T00:52:48;95054.91;;;10.71
61595;BMP280;47397;48.194;11.632;2023-04-24T00:53:49;95051.34;;;10.53
61595;BMP280;47397;48.194;11.632;2023-04-24T00:54:49;95052.66;;;10.63
61595;BMP280;47397;48.194;11.632;2023-04-24T00:55:50;95049.69;;;10.52
61595;BMP280;47397;48.194;11.632;2023-04-24T00:56:51;95055.91;;;10.67
61595;BMP280;47397;48.194;11.632;2023-04-24T00:57:51;95048.09;;;10.72
61595;BMP280;47397;48.194;11.632;2023-04-24T00:58:52;95046.13;;;10.80
61595;BMP280;47397;48.194;11.632;2023-04-24T00:59:54;95048.22;;;10.69
61595;BMP280;47397;48.194;11.632;2023-04-24T01:00:56;95044.97;;;10.65
61595;BMP280;47397;48.194;11.632;2023-04-24T01:01:56;95044.91;;;10.67
61595;BMP280;47397;48.194;11.632;2023-04-24T01:02:57;95043.53;;;10.81
61595;BMP280;47397;48.194;11.632;2023-04-24T01:03:59;95048.09;;;10.72
61595;BMP280;47397;48.194;11.632;2023-04-24T01:05:00;95045.00;;;10.87
61595;BMP280;47397;48.194;11.632;2023-04-24T01:06:01;95049.31;;;10.85
61595;BMP280;47397;48.194;11.632;2023-04-24T01:07:01;95051.22;;;10.80
61595;BMP280;47397;48.194;11.632;2023-04-24T01:08:02;95053.66;;;10.59
61595;BMP280;47397;48.194;11.632;2023-04-24T01:09:03;95049.22;;;10.64
61595;BMP280;47397;48.194;11.632;2023-04-24T01:10:04;95051.88;;;10.61
61595;BMP280;47397;48.194;11.632;2023-04-24T01:11:05;95045.50;;;10.51
61595;BMP280;47397;48.194;11.632;2023-04-24T01:12:06;95046.09;;;10.58
61595;BMP280;47397;48.194;11.632;2023-04-24T01:13:07;95048.22;;;10.69
61595;BMP280;47397;48.194;11.632;2023-04-24T01:14:08;95045.16;;;10.60
61595;BMP280;47397;48.194;11.632;2023-04-24T01:15:10;95041.59;;;10.64
61595;BMP280;47397;48.194;11.632;2023-04-24T01:16:10;95051.88;;;10.61
61595;BMP280;47397;48.194;11.632;2023-04-24T01:17:11;95038.34;;;10.61
61595;BMP280;47397;48.194;11.632;2023-04-24T01:18:12;95048.91;;;10.50
61595;BMP280;47397;48.194;11.632;2023-04-24T01:19:13;95045.72;;;10.22
61595;BMP280;47397;48.194;11.632;2023-04-24T01:20:15;95043.00;;;10.01
61595;BMP280;47397;48.194;11.632;2023-04-24T01:21:18;95042.72;;;10.34
61595;BMP280;47397;48.194;11.632;2023-04-24T01:22:20;95038.22;;;10.42
61595;BMP280;47397;48.194;11.632;2023-04-24T01:23:20;95040.84;;;10.39
61595;BMP280;47397;48.194;11.632;2023-04-24T01:24:20;95048.16;;;10.25
61595;BMP280;47397;48.194;11.632;2023-04-24T01:25:21;95037.34;;;10.43
61595;BMP280;47397;48.194;11.632;2023-04-24T01:26:22;95037.66;;;10.34
61595;BMP280;47397;48.194;11.632;2023-04-24T01:27:23;95037.41;;;10.42
61595;BMP280;47397;48.194;11.632;2023-04-24T01:28:23;95041.53;;;10.21
61595;BMP280;47397;48.194;11.632;2023-04-24T01:29:23;95039.91;;;10.18
61595;BMP280;47397;48.194;11.632;2023-04-24T01:30:24;95036.75;;;10.35
61595;BMP280;47397;48.194;11.632;2023-04-24T01:31:25;95030.47;;;10.45
61595;BMP280;47397;48.194;11.632;2023-04-24T01:32:26;95028.47;;;10.53
61595;BMP280;47397;48.194;11.632;2023-04-24T01:33:27;95028.50;;;10.30
61595;BMP280;47397;48.194;11.632;2023-04-24T01:34:28;95033.75;;;10.25
61595;BMP280;47397;48.194;11.632;2023-04-24T01:35:28;95038.16;;;10.44
61595;BMP280;47397;48.194;11.632;2023-04-24T01:36:30;95029.91;;;10.37
61595;BMP280;47397;48.194;11.632;2023-04-24T01:37:32;95029.16;;;10.35
61595;BMP280;47397;48.194;11.632;2023-04-24T01:38:32;95026.06;;;10.27
61595;BMP280;47397;48.194;11.632;2023-04-24T01:39:33;95023.00;;;10.17
61595;BMP280;47397;48.194;11.632;2023-04-24T01:40:33;95026.66;;;10.33
61595;BMP280;47397;48.194;11.632;2023-04-24T01:41:34;95037.41;;;10.40
61595;BMP280;47397;48.194;11.632;2023-04-24T01:42:35;95033.91;;;10.44
61595;BMP280;47397;48.194;11.632;2023-04-24T01:43:36;95029.81;;;10.40
61595;BMP280;47397;48.194;11.632;2023-04-24T01:44:36;95027.59;;;10.31
61595;BMP280;47397;48.194;11.632;2023-04-24T01:45:37;95022.81;;;10.23
61595;BMP280;47397;48.194;11.632;2023-04-24T01:46:38;95026.84;;;10.29
61595;BMP280;47397;48.194;11.632;2023-04-24T01:47:38;95029.25;;;10.32
61595;BMP280;47397;48.194;11.632;2023-04-24T01:48:40;95032.34;;;10.17
61595;BMP280;47397;48.194;11.632;2023-04-24T01:49:41;95030.91;;;10.33
61595;BMP280;47397;48.194;11.632;2023-04-24T01:50:41;95031.63;;;10.13
61595;BMP280;47397;48.194;11.632;2023-04-24T01:51:42;95034.50;;;10.02
61595;BMP280;47397;48.194;11.632;2023-04-24T01:52:44;95031.72;;;10.10
61595;BMP280;47397;48.194;11.632;2023-04-24T01:53:44;95036.53;;;10.18
61595;BMP280;47397;48.194;11.632;2023-04-24T01:54:45;95027.84;;;10.25
61595;BMP280;47397;48.194;11.632;2023-04-24T01:55:45;95039.91;;;9.93
61595;BMP280;47397;48.194;11.632;2023-04-24T01:56:46;95039.25;;;10.13
61595;BMP280;47397;48.194;11.632;2023-04-24T01:57:46;95034.75;;;10.20
61595;BMP280;47397;48.194;11.632;2023-04-24T01:58:47;95030.31;;;10.26
61595;BMP280;47397;48.194;11.632;2023-04-24T01:59:48;95030.16;;;10.31
61595;BMP280;47397;48.194;11.632;2023-04-24T02:00:48;95032.78;;;10.28
61595;BMP280;47397;48.194;11.632;2023-04-24T02:01:49;95030.16;;;10.31
61595;BMP280;47397;48.194;11.632;2023-04-24T02:02:49;95029.41;;;10.04
61595;BMP280;47397;48.194;11.632;2023-04-24T02:03:49;95034.63;;;10.24
61595;BMP280;47397;48.194;11.632;2023-04-24T02:04:50;95029.19;;;10.10
61595;BMP280;47397;48.194;11.632;2023-04-24T02:05:50;95038.47;;;10.11
61595;BMP280;47397;48.194;11.632;2023-04-24T02:06:51;95023.06;;;10.16
61595;BMP280;47397;48.194;11.632;2023-04-24T02:07:53;95031.03;;;10.30
61595;BMP280;47397;48.194;11.632;2023-04-24T02:08:53;95035.66;;;10.19
61595;BMP280;47397;48.194;11.632;2023-04-24T02:09:53;95038.53;;;10.10
61595;BMP280;47397;48.194;11.632;2023-04-24T02:10:54;95030.63;;;10.17
61595;BMP280;47397;48.194;11.632;2023-04-24T02:11:54;95031.84;;;10.30
61595;BMP280;47397;48.194;11.632;2023-04-24T02:12:55;95028.78;;;10.22
61595;BMP280;47397;48.194;11.632;2023-04-24T02:13:55;95032.63;;;10.09
61595;BMP280;47397;48.194;11.632;2023-04-24T02:14:55;95032.81;;;10.03
61595;BMP280;47397;48.194;11.632;2023-04-24T02:15:57;95033.28;;;10.14
61595;BMP280;47397;48.194;11.632;2023-04-24T02:16:58;95023.75;;;10.21
61595;BMP280;47397;48.194;11.632;2023-04-24T02:17:58;95028.41;;;10.08
61595;BMP280;47397;48.194;11.632;2023-04-24T02:18:59;95024.88;;;10.12
61595;BMP280;47397;48.194;11.632;2023-04-24T02:19:59;95029.91;;;10.14
61595;BMP280;47397;48.194;11.632;2023-04-24T02:21:00;95030.69;;;10.16
61595;BMP280;47397;48.194;11.632;2023-04-24T02:22:00;95030.97;;;10.08
61595;BMP280;47397;48.194;11.632;2023-04-24T02:23:02;95026.66;;;10.10
61595;BMP280;47397;48.194;11.632;2023-04-24T02:24:02;95029.38;;;9.81
61595;BMP280;47397;48.194;11.632;2023-04-24T02:25:04;95031.69;;;9.87
61595;BMP280;47397;48.194;11.632;2023-04-24T02:26:05;95025.75;;;9.88
61595;BMP280;47397;48.194;11.632;2023-04-24T02:27:05;95024.69;;;9.93
61595;BMP280;47397;48.194;11.632;2023-04-24T02:28:05;95022.94;;;9.95
61595;BMP280;47397;48.194;11.632;2023-04-24T02:29:06;95021.16;;;9.97
61595;BMP280;47397;48.194;11.632;2023-04-24T02:30:07;95020.13;;;10.03
61595;BMP280;47397;48.194;11.632;2023-04-24T02:31:08;95025.19;;;10.03
61595;BMP280;47397;48.194;11.632;2023-04-24T02:32:08;95025.19;;;10.03
61595;BMP280;47397;48.194;11.632;2023-04-24T02:33:09;95021.41;;;10.15
61595;BMP280;47397;48.194;11.632;2023-04-24T02:34:09;95023.41;;;9.82
61595;BMP280;47397;48.194;11.632;2023-04-24T02:35:10;95025.47;;;9.95
61595;BMP280;47397;48.194;11.632;2023-04-24T02:36:10;95024.84;;;9.89
61595;BMP280;47397;48.194;11.632;2023-04-24T02:37:10;95028.06;;;9.94
61595;BMP280;47397;48.194;11.632;2023-04-24T02:38:12;95016.81;;;10.01
61595;BMP280;47397;48.194;11.632;2023-04-24T02:39:13;95024.41;;;10.01
61595;BMP280;47397;48.194;11.632;2023-04-24T02:40:13;95023.53;;;10.02
61595;BMP280;47397;48.194;11.632;2023-04-24T02:41:13;95021.09;;;9.99
61595;BMP280;47397;48.194;11.632;2023-04-24T02:42:14;95022.47;;;10.09
61595;BMP280;47397;48.194;11.632;2023-04-24T02:43:14;95022.75;;;10.00
61595;BMP280;47397;48.194;11.632;2023-04-24T02:44:15;95022.75;;;10.00
61595;BMP280;47397;48.194;11.632;2023-04-24T02:45:15;95017.78;;;9.97
61595;BMP280;47397;48.194;11.632;2023-04-24T02:46:15;95023.50;;;10.03
61595;BMP280;47397;48.194;11.632;2023-04-24T02:47:16;95028.00;;;9.95
61595;BMP280;47397;48.194;11.632;2023-04-24T02:48:16;95019.44;;;9.98
61595;BMP280;47397;48.194;11.632;2023-04-24T02:49:17;95021.75;;;10.06
61595;BMP280;47397;48.194;11.632;2023-04-24T02:50:17;95028.47;;;10.07
61595;BMP280;47397;48.194;11.632;2023-04-24T02:51:18;95025.16;;;10.05
61595;BMP280;47397;48.194;11.632;2023-04-24T02:52:18;95021.38;;;9.91
61595;BMP280;47397;48.194;11.632;2023-04-24T02:53:20;95026.13;;;10.00
61595;BMP280;47397;48.194;11.632;2023-04-24T02:54:20;95021.28;;;9.94
61595;BMP280;47397;48.194;11.632;2023-04-24T02:55:21;95025.16;;;10.05
61595;BMP280;47397;48.194;11.632;2023-04-24T02:56:21;95019.78;;;9.89
61595;BMP280;47397;48.194;11.632;2023-04-24T02:57:21;95025.63;;;9.66
61595;BMP280;47397;48.194;11.632;2023-04-24T02:58:22;95023.53;;;9.79
61595;BMP280;47397;48.194;11.632;2023-04-24T02:59:22;95028.22;;;9.89
61595;BMP280;47397;48.194;11.632;2023-04-24T03:00:23;95028.84;;;9.96
61595;BMP280;47397;48.194;11.632;2023-04-24T03:01:23;95021.75;;;10.06
61595;BMP280;47397;48.194;11.632;2023-04-24T03:02:24;95026.28;;;9.96
61595;BMP280;47397;48.194;11.632;2023-04-24T03:03:24;95021.94;;;9.99
61595;BMP280;47397;48.194;11.632;2023-04-24T03:04:24;95024.03;;;9.88
61595;BMP280;47397;48.194;11.632;2023-04-24T03:05:25;95022.03;;;9.96
61595;BMP280;47397;48.194;11.632;2023-04-24T03:06:25;95021.28;;;9.94
61595;BMP280;47397;48.194;11.632;2023-04-24T03:07:26;95024.91;;;9.87
61595;BMP280;47397;48.194;11.632;2023-04-24T03:08:27;95029.94;;;9.64
61595;BMP280;47397;48.194;11.632;2023-04-24T03:09:28;95015.16;;;9.77
61595;BMP280;47397;48.194;11.632;2023-04-24T03:10:28;95019.63;;;9.93
61595;BMP280;47397;48.194;11.632;2023-04-24T03:11:29;95026.63;;;9.87
61595;BMP280;47397;48.194;11.632;2023-04-24T03:12:29;95020.94;;;9.80
61595;BMP280;47397;48.194;11.632;2023-04-24T03:13:29;95024.19;;;9.84
61595;BMP280;47397;48.194;11.632;2023-04-24T03:14:30;95016.91;;;9.98
61595;BMP280;47397;48.194;11.632;2023-04-24T03:15:31;95021.50;;;9.88
61595;BMP280;47397;48.194;11.632;2023-04-24T03:16:31;95017.91;;;9.94
61595;BMP280;47397;48.194;11.632;2023-04-24T03:17:32;95015.19;;;9.98
61595;BMP280;47397;48.194;11.632;2023-04-24T03:18:32;95019.44;;;9.98
61595;BMP280;47397;48.194;11.632;2023-04-24T03:19:33;95020.81;;;9.83
61595;BMP280;47397;48.194;11.632;2023-04-24T03:20:33;95022.66;;;9.80
61595;BMP280;47397;48.194;11.632;2023-04-24T03:21:33;95026.88;;;9.54
61595;BMP280;47397;48.194;11.632;2023-04-24T03:22:34;95021.16;;;9.74
61595;BMP280;47397;48.194;11.632;2023-04-24T03:23:36;95022.09;;;9.71
61595;BMP280;47397;48.194;11.632;2023-04-24T03:24:36;95031.19;;;9.77
61595;BMP280;47397;48.194;11.632;2023-04-24T03:25:36;95017.84;;;9.72
61595;BMP280;47397;48.194;11.632;2023-04-24T03:26:37;95026.00;;;9.80
61595;BMP280;47397;48.194;11.632;2023-04-24T03:27:37;95026.19;;;9.76
61595;BMP280;47397;48.194;11.632;2023-04-24T03:28:38;95024.84;;;9.89
61595;BMP280;47397;48.194;11.632;2023-04-24T03:29:38;95020.94;;;9.80
61595;BMP280;47397;48.194;11.632;2023-04-24T03:30:38;95021.53;;;9.87
61595;BMP280;47397;48.194;11.632;2023-04-24T03:31:39;95026.50;;;9.66
61595;BMP280;47397;48.194;11.632;2023-04-24T03:32:39;95026.69;;;9.60
61595;BMP280;47397;48.194;11.632;2023-04-24T03:33:40;95034.59;;;9.51
61595;BMP280;47397;48.194;11.632;2023-04-24T03:34:40;95033.78;;;9.51
61595;BMP280;47397;48.194;11.632;2023-04-24T03:35:40;95026.63;;;9.62
61595;BMP280;47397;48.194;11.632;2023-04-24T03:36:41;95031.19;;;9.77
61595;BMP280;47397;48.194;11.632;2023-04-24T03:37:41;95030.53;;;9.72
61595;BMP280;47397;48.194;11.632;2023-04-24T03:38:43;95032.19;;;9.73
61595;BMP280;47397;48.194;11.632;2023-04-24T03:39:43;95037.53;;;9.64
61595;BMP280;47397;48.194;11.632;2023-04-24T03:40:44;95040.56;;;9.50
61595;BMP280;47397;48.194;11.632;2023-04-24T03:41:44;95044.13;;;9.45
61595;BMP280;47397;48.194;11.632;2023-04-24T03:42:44;95042.16;;;9.53
61595;BMP280;47397;48.194;11.632;2023-04-24T03:43:45;95042.38;;;9.47
61595;BMP280;47397;48.194;11.632;2023-04-24T03:44:45;95039.16;;;9.42
61595;BMP280;47397;48.194;11.632;2023-04-24T03:45:46;95038.44;;;9.63
61595;BMP280;47397;48.194;11.632;2023-04-24T03:46:46;95026.34;;;9.71
61595;BMP280;47397;48.194;11.632;2023-04-24T03:47:47;95032.03;;;9.78
61595;BMP280;47397;48.194;11.632;2023-04-24T03:48:47;95037.09;;;9.78
61595;BMP280;47397;48.194;11.632;2023-04-24T03:49:47;95032.28;;;9.70
61595;BMP280;47397;48.194;11.632;2023-04-24T03:50:48;95030.38;;;9.77
61595;BMP280;47397;48.194;11.632;2023-04-24T03:51:48;95030.47;;;9.74
61595;BMP280;47397;48.194;11.632;2023-04-24T03:52:49;95034.28;;;9.60
61595;BMP280;47397;48.194;11.632;2023-04-24T03:53:50;95040.63;;;9.49
61595;BMP280;47397;48.194;11.632;2023-04-24T03:54:51;95023.41;;;9.57
61595;BMP280;47397;48.194;11.632;2023-04-24T03:55:52;95034.09;;;9.66
61595;BMP280;47397;48.194;11.632;2023-04-24T03:56:52;95031.03;;;9.57
61595;BMP280;47397;48.194;11.632;2023-04-24T03:57:53;95030.97;;;9.58
61595;BMP280;47397;48.194;11.632;2023-04-24T03:58:53;95029.81;;;9.68
61595;BMP280;47397;48.194;11.632;2023-04-24T03:59:54;95024.31;;;9.56
61595;BMP280;47397;48.194;11.632;2023-04-24T04:00:54;95031.50;;;9.43
61595;BMP280;47397;48.194;11.632;2023-04-24T04:01:55;95027.72;;;9.55
61595;BMP280;47397;48.194;11.632;2023-04-24T04:02:55;95022.16;;;9.70
61595;BMP280;47397;48.194;11.632;2023-04-24T04:03:55;95022.31;;;9.64
61595;BMP280;47397;48.194;11.632;2023-04-24T04:04:56;95019.22;;;9.56
61595;BMP280;47397;48.194;11.632;2023-04-24T04:05:56;95015.25;;;9.49
61595;BMP280;47397;48.194;11.632;2023-04-24T04:06:57;95019.66;;;9.68
61595;BMP280;47397;48.194;11.632;2023-04-24T04:07:57;95019.34;;;9.78
61595;BMP280;47397;48.194;11.632;2023-04-24T04:08:59;95016.44;;;9.63
61595;BMP280;47397;48.194;11.632;2023-04-24T04:09:59;95015.59;;;9.63
61595;BMP280;47397;48.194;11.632;2023-04-24T04:11:00;95016.91;;;9.75
61595;BMP280;47397;48.194;11.632;2023-04-24T04:12:00;95011.94;;;9.71
61595;BMP280;47397;48.194;11.632;2023-04-24T04:13:01;95015.25;;;9.74
61595;BMP280;47397;48.194;11.632;2023-04-24T04:14:01;95012.00;;;9.70
61595;BMP280;47397;48.194;11.632;2023-04-24T04:15:02;95015.09;;;9.78
61595;BMP280;47397;48.194;11.632;2023-04-24T04:16:03;95013.72;;;9.69
61595;BMP280;47397;48.194;11.632;2023-04-24T04:17:03;95012.66;;;9.75
61595;BMP280;47397;48.194;11.632;2023-04-24T04:18:04;95016.28;;;9.43
61595;BMP280;47397;48.194;11.632;2023-04-24T04:19:04;95019.91;;;9.61
61595;BMP280;47397;48.194;11.632;2023-04-24T04:20:05;95020.00;;;9.58
61595;BMP280;47397;48.194;11.632;2023-04-24T04:21:06;95019.59;;;9.70
61595;BMP280;47397;48.194;11.632;2023-04-24T04:22:06;95023.84;;;9.69
61595;BMP280;47397;48.194;11.632;2023-04-24T04:23:07;95017.69;;;9.77
61595;BMP280;47397;48.194;11.632;2023-04-24T04:24:09;95014.72;;;9.64
61595;BMP280;47397;48.194;11.632;2023-04-24T04:25:10;95017.94;;;9.69
61595;BMP280;47397;48.194;11.632;2023-04-24T04:26:11;95018.78;;;9.69
61595;BMP280;47397;48.194;11.632;2023-04-24T04:27:11;95015.41;;;9.69
61595;BMP280;47397;48.194;11.632;2023-04-24T04:28:12;95017.31;;;9.62
61595;BMP280;47397;48.194;11.632;2023-04-24T04:29:12;95010.91;;;9.77
61595;BMP280;47397;48.194;11.632;2023-04-24T04:30:13;95012.81;;;9.70
61595;BMP280;47397;48.194;11.632;2023-04-24T04:31:14;95016.84;;;9.76
61595;BMP280;47397;48.194;11.632;2023-04-24T04:32:14;95020.16;;;9.78
61595;BMP280;47397;48.194;11.632;2023-04-24T04:33:15;95022.69;;;9.78
61595;BMP280;47397;48.194;11.632;2023-04-24T04:34:15;95030.19;;;9.56
61595;BMP280;47397;48.194;11.632;2023-04-24T04:35:16;95027.72;;;9.55
61595;BMP280;47397;48.194;11.632;2023-04-24T04:36:16;95024.69;;;9.70
61595;BMP280;47397;48.194;11.632;2023-04-24T04:37:17;95026.78;;;9.57
61595;BMP280;47397;48.194;11.632;2023-04-24T04:38:18;95029.16;;;9.62
61595;BMP280;47397;48.194;11.632;2023-04-24T04:39:20;95029.66;;;9.73
61595;BMP280;47397;48.194;11.632;2023-04-24T04:40:20;95031.34;;;9.73
61595;BMP280;47397;48.194;11.632;2023-04-24T04:41:21;95024.31;;;9.81
61595;BMP280;47397;48.194;11.632;2023-04-24T04:42:21;95033.34;;;9.88
61595;BMP280;47397;48.194;11.632;2023-04-24T04:43:22;95032.53;;;9.87
61595;BMP280;47397;48.194;11.632;2023-04-24T04:44:22;95032.84;;;9.78
61595;BMP280;47397;48.194;11.632;2023-04-24T04:45:23;95039.47;;;9.82
61595;BMP280;47397;48.194;11.632;2023-04-24T04:46:23;95033.69;;;9.79
61595;BMP280;47397;48.194;11.632;2023-04-24T04:47:24;95038.13;;;9.72
61595;BMP280;47397;48.194;11.632;2023-04-24T04:48:24;95038.59;;;9.58
61595;BMP280;47397;48.194;11.632;2023-04-24T04:49:24;95044.44;;;9.60
61595;BMP280;47397;48.194;11.632;2023-04-24T04:50:25;95028.88;;;9.71
61595;BMP280;47397;48.194;11.632;2023-04-24T04:51:25;95038.88;;;9.76
61595;BMP280;47397;48.194;11.632;2023-04-24T04:52:26;95037.09;;;9.78
61595;BMP280;47397;48.194;11.632;2023-04-24T04:53:26;95040.56;;;9.75
61595;BMP280;47397;48.194;11.632;2023-04-24T04:54:28;95043.16;;;9.74
61595;BMP280;47397;48.194;11.632;2023-04-24T04:55:28;95043.13;;;9.75
61595;BMP280;47397;48.194;11.632;2023-04-24T04:56:29;95045.69;;;9.74
61595;BMP280;47397;48.194;11.632;2023-04-24T04:57:30;95050.34;;;9.61
61595;BMP280;47397;48.194;11.632;2023-04-24T04:58:30;95050.63;;;9.78
61595;BMP280;47397;48.194;11.632;2023-04-24T04:59:31;95046.94;;;9.87
61595;BMP280;47397;48.194;11.632;2023-04-24T05:00:31;95047.31;;;9.76
61595;BMP280;47397;48.194;11.632;2023-04-24T05:01:31;95042.38;;;9.71
61595;BMP280;47397;48.194;11.632;2023-04-24T05:02:32;95042.19;;;9.78
61595;BMP280;47397;48.194;11.632;2023-04-24T05:03:32;95048.25;;;9.74
61595;BMP280;47397;48.194;11.632;2023-04-24T05:04:33;95042.28;;;9.75
61595;BMP280;47397;48.194;11.632;2023-04-24T05:05:34;95045.38;;;9.83
61595;BMP280;47397;48.194;11.632;2023-04-24T05:06:34;95044.75;;;9.76
61595;BMP280;47397;48.194;11.632;2023-04-24T05:07:35;95056.78;;;9.71
61595;BMP280;47397;48.194;11.632;2023-04-24T05:08:35;95045.75;;;9.72
61595;BMP280;47397;48.194;11.632;2023-04-24T05:09:37;95050.63;;;9.78
61595;BMP280;47397;48.194;11.632;2023-04-24T05:10:37;95048.28;;;9.72
61595;BMP280;47397;48.194;11.632;2023-04-24T05:11:38;95053.66;;;9.63
61595;BMP280;47397;48.194;11.632;2023-04-24T05:12:38;95060.31;;;9.67
61595;BMP280;47397;48.194;11.632;2023-04-24T05:13:38;95056.88;;;9.68
61595;BMP280;47397;48.194;11.632;2023-04-24T05:14:39;95053.38;;;9.72
61595;BMP280;47397;48.194;11.632;2023-04-24T05:15:39;95051.59;;;9.74
61595;BMP280;47397;48.194;11.632;2023-04-24T05:16:40;95058.84;;;9.60
61595;BMP280;47397;48.194;11.632;2023-04-24T05:17:40;95060.53;;;9.59
61595;BMP280;47397;48.194;11.632;2023-04-24T05:18:41;95059.31;;;9.71
61595;BMP280;47397;48.194;11.632;2023-04-24T05:19:41;95057.34;;;9.79
61595;BMP280;47397;48.194;11.632;2023-04-24T05:20:42;95062.69;;;9.71
61595;BMP280;47397;48.194;11.632;2023-04-24T05:21:42;95060.03;;;9.75
61595;BMP280;47397;48.194;11.632;2023-04-24T05:22:42;95063.31;;;9.78
61595;BMP280;47397;48.194;11.632;2023-04-24T05:23:43;95059.88;;;9.79
61595;BMP280;47397;48.194;11.632;2023-04-24T05:24:45;95058.22;;;9.78
61595;BMP280;47397;48.194;11.632;2023-04-24T05:25:45;95068.44;;;9.77
61595;BMP280;47397;48.194;11.632;2023-04-24T05:26:46;95062.91;;;9.64
61595;BMP280;47397;48.194;11.632;2023-04-24T05:27:46;95064.06;;;9.80
61595;BMP280;47397;48.194;11.632;2023-04-24T05:28:47;95069.31;;;9.76
61595;BMP280;47397;48.194;11.632;2023-04-24T05:29:47;95075.88;;;9.81
61595;BMP280;47397;48.194;11.632;2023-04-24T05:30:47;95072.06;;;9.69
61595;BMP280;47397;48.194;11.632;2023-04-24T05:31:48;95070.91;;;9.78
61595;BMP280;47397;48.194;11.632;2023-04-24T05:32:48;95068.16;;;9.59
61595;BMP280;47397;48.194;11.632;2023-04-24T05:33:49;95067.94;;;9.65
61595;BMP280;47397;48.194;11.632;2023-04-24T05:34:49;95064.56;;;9.65
61595;BMP280;47397;48.194;11.632;2023-04-24T05:35:50;95072.88;;;9.70
61595;BMP280;47397;48.194;11.632;2023-04-24T05:36:50;95063.69;;;9.66
61595;BMP280;47397;48.194;11.632;2023-04-24T05:37:51;95068.09;;;9.61
61595;BMP280;47397;48.194;11.632;2023-04-24T05:38:51;95073.06;;;9.64
61595;BMP280;47397;48.194;11.632;2023-04-24T05:39:53;95070.53;;;9.64
61595;BMP280;47397;48.194;11.632;2023-04-24T05:40:53;95073.75;;;9.69
61595;BMP280;47397;48.194;11.632;2023-04-24T05:41:54;95070.09;;;9.78
61595;BMP280;47397;48.194;11.632;2023-04-24T05:42:54;95060.59;;;9.83
61595;BMP280;47397;48.194;11.632;2023-04-24T05:43:55;95062.88;;;9.90
61595;BMP280;47397;48.194;11.632;2023-04-24T05:44:55;95064.13;;;9.79
61595;BMP280;47397;48.194;11.632;2023-04-24T05:45:55;95063.03;;;9.86
61595;BMP280;47397;48.194;11.632;2023-04-24T05:46:56;95066.72;;;9.77